Time;durP1;ratioP1;P1;durP2;ratioP2;P2;SDS_P1;SDS_P2;PMS_P1;PMS_P2;Temp;Humidity;BMP_temperature;BMP_pressure;BME280_temperature;BME280_humidity;BME280_pressure;Samples;Min_cycle;Max_cycle;Signal;HPM_P1;HPM_P2
2022/04/15 00:02:05;;;;;;;16.87;15.27;;;14.20;99.90;;;;;;5083202;28;20224;-64
2022/04/15 00:04:34;;;;;;;13.18;11.90;;;14.10;99.90;;;;;;5095533;28;20480;-63
2022/04/15 00:07:01;;;;;;;15.00;13.60;;;14.10;99.90;;;;;;5096172;28;20219;-63
2022/04/15 00:09:28;;;;;;;15.90;14.40;;;14.10;99.90;;;;;;5095787;28;20460;-63
2022/04/15 00:11:56;;;;;;;14.63;13.23;;;14.10;99.90;;;;;;5096024;28;20530;-63
2022/04/15 00:14:23;;;;;;;15.73;14.30;;;14.00;99.90;;;;;;5095287;28;20864;-63
2022/04/15 00:16:50;;;;;;;13.97;12.77;;;14.00;99.90;;;;;;5096015;28;20468;-63
2022/04/15 00:19:19;;;;;;;16.00;14.47;;;14.00;99.90;;;;;;5095997;28;20465;-63
2022/04/15 00:21:46;;;;;;;13.95;12.65;;;14.00;99.90;;;;;;5096065;28;20955;-64
2022/04/15 00:24:12;;;;;;;17.70;15.77;;;14.00;99.90;;;;;;5096093;28;20231;-64
2022/04/15 00:26:39;;;;;;;16.58;14.98;;;13.90;99.90;;;;;;5095519;28;20226;-64
2022/04/15 00:29:06;;;;;;;16.00;14.40;;;13.90;99.90;;;;;;5096090;28;20250;-64
2022/04/15 00:31:34;;;;;;;16.80;15.20;;;13.90;99.90;;;;;;5095427;28;20243;-64
2022/04/15 00:34:01;;;;;;;16.25;14.77;;;13.80;99.90;;;;;;5096061;28;20835;-64
2022/04/15 00:36:29;;;;;;;14.80;13.30;;;13.80;99.90;;;;;;5095408;28;20309;-64
2022/04/15 00:38:56;;;;;;;18.00;14.80;;;13.80;99.90;;;;;;5095780;28;20492;-65
2022/04/15 00:41:23;;;;;;;15.65;13.93;;;13.80;99.90;;;;;;5108809;28;20824;-64
2022/04/15 00:43:54;;;;;;;14.37;12.97;;;13.80;99.90;;;;;;5095577;28;20238;-64
2022/04/15 00:46:21;;;;;;;16.17;13.05;;;13.80;99.90;;;;;;5081619;28;20556;-63
2022/04/15 00:48:48;;;;;;;16.90;15.20;;;13.80;99.90;;;;;;5087925;28;20220;-63
2022/04/15 00:51:15;;;;;;;15.60;14.20;;;13.80;99.90;;;;;;5086881;28;20465;-63
2022/04/15 00:53:45;;;;;;;16.48;14.77;;;13.80;99.90;;;;;;5086426;28;20462;-64
2022/04/15 00:56:14;;;;;;;14.88;13.52;;;13.70;99.90;;;;;;5093982;28;20223;-64
2022/04/15 00:58:42;;;;;;;15.63;14.13;;;13.80;99.90;;;;;;5086997;28;20246;-63
2022/04/15 01:01:09;;;;;;;14.88;13.05;;;13.80;99.90;;;;;;5089847;28;20688;-64
2022/04/15 01:03:37;;;;;;;15.75;14.25;;;13.80;99.90;;;;;;5087584;28;20223;-63
2022/04/15 01:06:07;;;;;;;13.75;12.55;;;13.80;99.90;;;;;;5095282;28;20460;-63
2022/04/15 01:08:38;;;;;;;15.63;13.30;;;13.80;99.90;;;;;;5094839;28;20219;-64
2022/04/15 01:11:08;;;;;;;14.32;13.02;;;13.80;99.90;;;;;;5095110;28;20223;-63
2022/04/15 01:13:38;;;;;;;14.75;13.20;;;13.80;99.90;;;;;;5094451;28;20215;-64
2022/04/15 01:16:06;;;;;;;14.27;12.25;;;13.70;99.90;;;;;;5095166;28;20223;-65
2022/04/15 01:18:33;;;;;;;12.60;11.40;;;13.70;99.90;;;;;;5094554;28;20277;-63
2022/04/15 01:21:00;;;;;;;13.32;12.05;;;13.70;99.90;;;;;;5095056;28;20223;-64
2022/04/15 01:23:29;;;;;;;13.70;12.00;;;13.70;99.90;;;;;;5094481;28;20681;-64
2022/04/15 01:25:55;;;;;;;11.87;10.77;;;13.70;99.90;;;;;;5095174;28;20227;-64
2022/04/15 01:28:22;;;;;;;13.75;12.32;;;13.70;99.90;;;;;;5094568;28;20484;-64
2022/04/15 01:30:50;;;;;;;12.27;11.18;;;13.60;99.90;;;;;;5094706;28;20716;-65
2022/04/15 01:33:17;;;;;;;11.13;9.93;;;13.60;99.90;;;;;;5094519;28;20223;-64
2022/04/15 01:35:44;;;;;;;11.90;10.75;;;13.60;99.90;;;;;;5094419;28;20724;-64
2022/04/15 01:38:14;;;;;;;10.52;9.10;;;13.60;99.90;;;;;;5094613;28;20223;-63
2022/04/15 01:40:43;;;;;;;15.18;12.93;;;13.50;99.90;;;;;;5104391;28;20556;-64
2022/04/15 01:43:10;;;;;;;10.13;9.10;;;13.50;99.90;;;;;;5097295;28;20219;-64
2022/04/15 01:45:37;;;;;;;10.32;9.32;;;13.40;99.90;;;;;;5093978;28;20665;-64
2022/04/15 01:48:04;;;;;;;9.50;8.25;;;13.40;99.90;;;;;;5094377;28;20234;-63
2022/04/15 01:50:31;;;;;;;8.85;8.02;;;13.30;99.90;;;;;;5090575;28;20701;-64
2022/04/15 01:52:58;;;;;;;8.45;7.65;;;13.20;99.90;;;;;;5091899;28;20219;-64
2022/04/15 01:55:25;;;;;;;8.43;7.60;;;13.20;99.90;;;;;;5085441;28;20228;-65
2022/04/15 01:57:54;;;;;;;8.65;7.85;;;13.20;99.90;;;;;;5093985;28;20654;-65
2022/04/15 02:00:21;;;;;;;9.70;8.80;;;13.10;99.90;;;;;;5094061;28;20239;-64
2022/04/15 02:02:48;;;;;;;9.20;8.30;;;13.10;99.90;;;;;;5079867;28;20230;-64
2022/04/15 02:05:15;;;;;;;8.73;7.80;;;13.00;99.90;;;;;;5094166;28;20227;-64
2022/04/15 02:07:42;;;;;;;10.50;8.70;;;12.90;99.90;;;;;;5093620;28;20223;-64
2022/04/15 02:10:10;;;;;;;9.68;8.77;;;12.90;99.90;;;;;;5094110;28;20230;-63
2022/04/15 02:12:36;;;;;;;8.75;8.05;;;12.80;99.90;;;;;;5093274;28;20227;-64
2022/04/15 02:15:06;;;;;;;9.35;8.05;;;12.80;99.90;;;;;;5088214;28;20219;-64
2022/04/15 02:17:33;;;;;;;10.52;7.88;;;12.70;99.90;;;;;;5080663;28;20227;-64
2022/04/15 02:19:59;;;;;;;7.68;7.00;;;12.70;99.90;;;;;;5093774;28;20219;-64
2022/04/15 02:22:26;;;;;;;8.93;8.02;;;12.70;99.90;;;;;;5093428;28;20580;-65
2022/04/15 02:24:56;;;;;;;8.25;7.65;;;12.60;99.90;;;;;;5093667;28;20234;-64
2022/04/15 02:27:23;;;;;;;8.63;7.80;;;12.60;99.90;;;;;;5093780;28;20231;-65
2022/04/15 02:29:49;;;;;;;7.82;7.07;;;12.50;99.90;;;;;;5093200;28;20220;-65
2022/04/15 02:32:18;;;;;;;8.60;6.60;;;12.50;99.90;;;;;;5093578;28;20250;-65
2022/04/15 02:34:45;;;;;;;7.88;7.20;;;12.50;99.90;;;;;;5093108;28;20223;-65
2022/04/15 02:37:11;;;;;;;8.40;7.45;;;12.40;99.90;;;;;;5093530;28;20219;-65
2022/04/15 02:39:38;;;;;;;8.95;8.10;;;12.40;99.90;;;;;;5092895;28;20683;-65
2022/04/15 02:42:05;;;;;;;8.73;7.82;;;12.40;99.90;;;;;;5093499;28;20222;-64
2022/04/15 02:44:32;;;;;;;8.82;8.13;;;12.30;99.90;;;;;;5093042;28;20223;-64
2022/04/15 02:46:59;;;;;;;9.18;8.25;;;12.30;99.90;;;;;;5093443;28;20219;-65
2022/04/15 02:49:28;;;;;;;7.65;7.00;;;12.30;99.90;;;;;;5093251;28;20218;-65
2022/04/15 02:51:56;;;;;;;8.15;7.32;;;12.20;99.90;;;;;;5093117;28;20669;-65
2022/04/15 02:54:26;;;;;;;9.98;8.98;;;12.20;99.90;;;;;;5081860;28;20219;-65
2022/04/15 02:56:53;;;;;;;10.30;9.40;;;12.20;99.90;;;;;;5092794;28;20756;-65
2022/04/15 02:59:20;;;;;;;8.15;7.47;;;12.20;99.90;;;;;;5093026;28;20558;-64
2022/04/15 03:01:48;;;;;;;8.75;8.00;;;12.10;99.90;;;;;;5081870;28;20747;-63
2022/04/15 03:04:14;;;;;;;9.20;8.25;;;12.10;99.90;;;;;;5090632;28;20219;-64
2022/04/15 03:06:43;;;;;;;9.40;8.27;;;12.10;99.90;;;;;;5092699;28;20676;-64
2022/04/15 03:09:09;;;;;;;10.50;7.97;;;12.10;99.90;;;;;;5092969;28;20235;-64
2022/04/15 03:11:38;;;;;;;8.68;7.82;;;12.10;99.90;;;;;;5092504;28;20239;-64
2022/04/15 03:14:06;;;;;;;8.65;7.85;;;12.10;99.90;;;;;;5091662;28;20413;-64
2022/04/15 03:16:33;;;;;;;9.27;8.48;;;12.00;99.90;;;;;;5092403;28;20261;-64
2022/04/15 03:18:59;;;;;;;8.15;7.45;;;12.00;99.90;;;;;;5092832;28;20663;-64
2022/04/15 03:21:26;;;;;;;9.20;8.27;;;12.00;99.90;;;;;;5092919;28;20242;-64
2022/04/15 03:23:55;;;;;;;8.13;7.40;;;12.00;99.90;;;;;;5092192;28;20227;-64
2022/04/15 03:26:22;;;;;;;11.63;7.55;;;12.00;99.90;;;;;;5092833;28;20219;-65
2022/04/15 03:28:49;;;;;;;9.85;8.82;;;12.00;99.90;;;;;;5092415;28;20626;-64
2022/04/15 03:31:16;;;;;;;10.80;8.50;;;12.00;99.90;;;;;;5092423;28;20254;-64
2022/04/15 03:33:43;;;;;;;8.02;7.32;;;12.00;99.90;;;;;;5092225;28;20223;-64
2022/04/15 03:36:09;;;;;;;10.30;8.10;;;11.90;99.90;;;;;;5092746;28;20227;-64
2022/04/15 03:38:36;;;;;;;11.30;9.93;;;11.90;99.90;;;;;;5092318;28;20234;-64
2022/04/15 03:41:04;;;;;;;9.13;8.30;;;12.00;99.90;;;;;;5105883;28;20230;-64
2022/04/15 03:43:35;;;;;;;7.45;6.85;;;12.00;99.90;;;;;;5079664;28;20223;-65
2022/04/15 03:46:02;;;;;;;8.30;7.25;;;12.00;99.90;;;;;;5092337;28;20227;-64
2022/04/15 03:48:29;;;;;;;8.63;7.72;;;12.00;99.90;;;;;;5084631;28;20216;-64
2022/04/15 03:50:55;;;;;;;7.70;7.10;;;11.90;99.90;;;;;;5092084;28;20247;-64
2022/04/15 03:53:23;;;;;;;7.90;7.20;;;11.90;99.90;;;;;;5086692;28;20219;-65
2022/04/15 03:55:50;;;;;;;9.18;8.40;;;12.00;99.90;;;;;;5087294;28;20223;-64
2022/04/15 03:58:19;;;;;;;9.93;8.35;;;12.00;99.90;;;;;;5092315;28;20767;-64
2022/04/15 04:00:45;;;;;;;8.80;7.95;;;12.00;99.90;;;;;;5089807;28;20242;-64
2022/04/15 04:03:14;;;;;;;9.35;8.35;;;12.00;99.90;;;;;;5081358;28;20234;-65
2022/04/15 04:05:41;;;;;;;9.43;8.65;;;12.00;99.90;;;;;;5091959;28;20231;-65
2022/04/15 04:08:08;;;;;;;11.50;8.85;;;12.00;99.90;;;;;;5092413;28;20230;-65
2022/04/15 04:10:35;;;;;;;9.13;8.20;;;12.00;99.90;;;;;;5092472;28;20230;-65
2022/04/15 04:13:02;;;;;;;11.98;9.25;;;11.90;99.90;;;;;;5091652;28;20223;-65
2022/04/15 04:15:30;;;;;;;10.13;9.13;;;12.00;99.90;;;;;;5092113;28;20295;-65
2022/04/15 04:17:57;;;;;;;10.05;8.88;;;11.90;99.90;;;;;;5091924;28;20231;-65
2022/04/15 04:20:25;;;;;;;9.65;7.70;;;12.00;99.90;;;;;;5092121;28;20227;-65
2022/04/15 04:22:51;;;;;;;9.98;9.07;;;12.00;99.90;;;;;;5091685;28;20230;-64
2022/04/15 04:25:18;;;;;;;9.75;8.85;;;12.00;99.90;;;;;;5093031;28;20227;-64
2022/04/15 04:27:46;;;;;;;9.50;8.60;;;12.00;99.90;;;;;;5095605;28;20687;-64
2022/04/15 04:30:15;;;;;;;9.60;8.70;;;12.00;99.90;;;;;;5095772;28;20234;-64
2022/04/15 04:32:49;;;;;;;12.32;11.02;;;12.00;99.90;;;;;;5095532;28;20238;-64
2022/04/15 04:35:17;;;;;;;12.43;9.50;;;12.00;99.90;;;;;;5095847;28;20288;-64
2022/04/15 04:37:45;;;;;;;9.75;8.93;;;12.00;99.90;;;;;;5095544;28;20219;-64
2022/04/15 04:40:13;;;;;;;10.35;9.43;;;11.90;99.90;;;;;;5088640;27;20230;-64
2022/04/15 04:42:41;;;;;;;10.18;9.27;;;12.00;99.90;;;;;;5102201;28;20715;-64
2022/04/15 04:45:10;;;;;;;9.60;8.80;;;12.00;99.90;;;;;;5082348;28;20232;-64
2022/04/15 04:47:38;;;;;;;10.45;9.38;;;12.00;99.90;;;;;;5095451;28;20227;-64
2022/04/15 04:50:09;;;;;;;11.38;9.48;;;12.00;99.90;;;;;;5091880;28;20215;-63
2022/04/15 04:52:36;;;;;;;10.48;9.38;;;12.00;99.90;;;;;;5095520;28;20231;-63
2022/04/15 04:55:03;;;;;;;9.40;8.50;;;12.00;99.90;;;;;;5083852;28;20652;-64
2022/04/15 04:57:30;;;;;;;10.30;9.27;;;12.00;99.90;;;;;;5095226;28;20227;-64
2022/04/15 04:59:57;;;;;;;10.07;9.10;;;12.00;99.90;;;;;;5094898;28;20227;-64
2022/04/15 05:02:24;;;;;;;9.50;8.70;;;12.00;99.90;;;;;;5082206;28;20289;-64
2022/04/15 05:04:51;;;;;;;9.40;8.57;;;12.00;99.90;;;;;;5093286;28;20227;-64
2022/04/15 05:07:19;;;;;;;10.35;9.35;;;12.00;99.90;;;;;;5093544;28;20228;-64
2022/04/15 05:09:46;;;;;;;14.07;9.55;;;12.00;99.90;;;;;;5093638;28;20538;-64
2022/04/15 05:12:13;;;;;;;12.13;10.38;;;12.00;99.90;;;;;;5094350;28;20239;-64
2022/04/15 05:14:40;;;;;;;10.68;9.68;;;12.00;99.90;;;;;;5094216;28;20223;-64
2022/04/15 05:17:07;;;;;;;10.52;9.52;;;12.00;99.90;;;;;;5094207;28;20235;-63
2022/04/15 05:19:34;;;;;;;10.20;9.20;;;12.00;99.90;;;;;;5094449;28;20254;-64
2022/04/15 05:22:01;;;;;;;10.77;8.73;;;12.00;99.90;;;;;;5093732;28;20238;-64
2022/04/15 05:24:29;;;;;;;8.85;7.82;;;12.00;99.90;;;;;;5095197;28;20231;-64
2022/04/15 05:26:56;;;;;;;10.57;9.65;;;12.10;99.90;;;;;;5094725;28;20712;-64
2022/04/15 05:29:23;;;;;;;8.73;7.93;;;12.10;99.90;;;;;;5095098;28;20566;-64
2022/04/15 05:31:49;;;;;;;9.35;8.45;;;12.10;99.90;;;;;;5094678;28;20231;-64
2022/04/15 05:34:16;;;;;;;9.35;8.55;;;12.10;99.90;;;;;;5095337;28;20558;-64
2022/04/15 05:36:43;;;;;;;9.05;8.20;;;12.10;99.90;;;;;;5094029;28;20693;-64
2022/04/15 05:39:10;;;;;;;7.82;7.13;;;12.10;99.90;;;;;;5094535;28;20235;-65
2022/04/15 05:41:38;;;;;;;9.13;8.32;;;12.10;99.90;;;;;;5094682;28;20705;-65
2022/04/15 05:44:07;;;;;;;8.93;8.02;;;12.10;99.90;;;;;;5094308;28;20219;-64
2022/04/15 05:46:37;;;;;;;8.40;7.68;;;12.10;99.90;;;;;;5094509;28;20314;-64
2022/04/15 05:49:04;;;;;;;8.05;7.30;;;12.20;99.90;;;;;;5093993;28;20219;-64
2022/04/15 05:51:31;;;;;;;11.73;8.30;;;12.20;99.90;;;;;;5094628;28;20239;-64
2022/04/15 05:53:58;;;;;;;8.23;7.50;;;12.20;99.90;;;;;;5093837;28;20211;-64
2022/04/15 05:56:24;;;;;;;7.53;6.82;;;12.20;99.90;;;;;;5094600;28;20223;-65
2022/04/15 05:58:52;;;;;;;8.98;8.18;;;12.20;99.90;;;;;;5076183;28;20228;-64
2022/04/15 06:01:21;;;;;;;7.80;7.10;;;12.20;99.90;;;;;;5075070;28;20578;-64
2022/04/15 06:03:47;;;;;;;7.60;7.00;;;12.20;99.90;;;;;;5073704;28;20227;-64
2022/04/15 06:06:14;;;;;;;8.23;7.43;;;12.20;99.90;;;;;;5073913;28;20235;-64
2022/04/15 06:08:41;;;;;;;8.13;7.53;;;12.20;99.90;;;;;;5073965;28;20702;-64
2022/04/15 06:11:08;;;;;;;9.07;8.15;;;12.20;99.90;;;;;;5073249;28;20669;-64
2022/04/15 06:13:35;;;;;;;8.43;7.57;;;12.20;99.90;;;;;;5081033;28;20313;-64
2022/04/15 06:16:05;;;;;;;8.30;7.22;;;12.20;99.90;;;;;;5093712;28;20310;-64
2022/04/15 06:18:36;;;;;;;9.20;7.25;;;12.20;99.90;;;;;;5094106;28;20223;-64
2022/04/15 06:21:03;;;;;;;7.60;6.80;;;12.30;99.90;;;;;;5093537;28;20220;-64
2022/04/15 06:23:30;;;;;;;7.45;6.85;;;12.30;99.90;;;;;;5093998;28;20231;-64
2022/04/15 06:25:57;;;;;;;7.50;6.78;;;12.30;99.90;;;;;;5093370;28;20223;-64
2022/04/15 06:28:24;;;;;;;9.40;7.90;;;12.40;99.90;;;;;;5093847;28;20222;-64
2022/04/15 06:30:51;;;;;;;8.95;7.75;;;12.30;99.90;;;;;;5093328;28;20561;-65
2022/04/15 06:33:20;;;;;;;8.30;7.60;;;12.40;99.90;;;;;;5093614;28;20220;-64
2022/04/15 06:35:47;;;;;;;11.02;9.80;;;12.40;99.90;;;;;;5093739;28;20222;-65
2022/04/15 06:38:13;;;;;;;9.52;8.02;;;12.40;99.90;;;;;;5093451;28;20557;-65
2022/04/15 06:40:40;;;;;;;8.73;7.93;;;12.40;99.90;;;;;;5093517;28;20219;-63
2022/04/15 06:43:08;;;;;;;10.90;8.63;;;12.40;99.90;;;;;;5093306;28;20231;-64
2022/04/15 06:45:35;;;;;;;9.98;8.25;;;12.40;99.90;;;;;;5093428;28;20688;-64
2022/04/15 06:48:02;;;;;;;8.35;7.63;;;12.40;99.90;;;;;;5093018;28;20220;-65
2022/04/15 06:50:30;;;;;;;10.15;9.15;;;12.40;99.90;;;;;;5093459;28;20223;-64
2022/04/15 06:52:58;;;;;;;11.90;9.95;;;12.40;99.90;;;;;;5092794;28;20219;-65
2022/04/15 06:55:25;;;;;;;10.27;9.05;;;12.40;99.90;;;;;;5093490;28;20222;-64
2022/04/15 06:57:51;;;;;;;9.60;8.55;;;12.40;99.90;;;;;;5092835;28;20231;-65
2022/04/15 07:00:19;;;;;;;10.52;8.82;;;12.40;99.90;;;;;;5093206;28;20219;-64
2022/04/15 07:02:46;;;;;;;10.63;8.20;;;12.40;99.90;;;;;;5093288;28;20223;-64
2022/04/15 07:05:13;;;;;;;7.75;7.00;;;12.40;99.90;;;;;;5092677;28;20231;-64
2022/04/15 07:07:42;;;;;;;7.30;6.28;;;12.40;99.90;;;;;;5093149;28;20219;-64
2022/04/15 07:10:15;;;;;;;8.00;7.20;;;12.50;99.90;;;;;;5092807;28;20230;-65
2022/04/15 07:12:43;;;;;;;8.13;7.43;;;12.50;99.90;;;;;;5093183;28;20570;-64
2022/04/15 07:15:10;;;;;;;9.35;8.05;;;12.50;99.90;;;;;;5072327;28;20573;-65
2022/04/15 07:17:37;;;;;;;10.02;8.48;;;12.50;99.90;;;;;;5072866;28;20310;-64
2022/04/15 07:20:06;;;;;;;11.77;8.15;;;12.40;99.90;;;;;;5072299;28;20678;-63
2022/04/15 07:22:33;;;;;;;11.30;8.68;;;12.50;99.90;;;;;;5072630;28;20675;-64
2022/04/15 07:25:01;;;;;;;7.72;6.63;;;12.50;99.90;;;;;;5072346;28;20231;-64
2022/04/15 07:27:28;;;;;;;10.98;8.63;;;12.50;99.90;;;;;;5072657;28;20231;-65
2022/04/15 07:29:55;;;;;;;7.43;6.70;;;12.50;99.90;;;;;;5072267;28;20227;-65
2022/04/15 07:32:22;;;;;;;11.25;8.55;;;12.50;99.90;;;;;;5072666;28;20216;-65
2022/04/15 07:34:49;;;;;;;9.45;8.55;;;12.50;99.90;;;;;;5072622;28;20221;-64
2022/04/15 07:37:16;;;;;;;9.32;8.48;;;12.50;99.90;;;;;;5072174;28;20228;-65
2022/04/15 07:39:43;;;;;;;10.27;8.82;;;12.50;99.90;;;;;;5072791;28;20230;-64
2022/04/15 07:42:12;;;;;;;12.20;8.63;;;12.50;99.90;;;;;;5071881;28;20228;-65
2022/04/15 07:44:39;;;;;;;10.90;9.80;;;12.50;99.90;;;;;;5072560;28;20701;-63
2022/04/15 07:47:07;;;;;;;10.15;7.97;;;12.50;99.90;;;;;;5071985;28;20227;-64
2022/04/15 07:49:34;;;;;;;11.30;9.82;;;12.40;99.90;;;;;;5072654;28;20230;-65
2022/04/15 07:52:02;;;;;;;9.88;8.70;;;12.50;99.90;;;;;;5072010;28;20299;-65
2022/04/15 07:54:29;;;;;;;9.82;8.75;;;12.50;99.90;;;;;;5086025;28;20229;-64
2022/04/15 07:56:56;;;;;;;9.32;8.52;;;12.50;99.90;;;;;;5092291;28;20290;-64
2022/04/15 07:59:24;;;;;;;10.85;9.73;;;12.50;99.90;;;;;;5092422;28;20227;-65
2022/04/15 08:01:51;;;;;;;10.95;8.85;;;12.50;99.90;;;;;;5095878;28;20223;-64
2022/04/15 08:04:17;;;;;;;9.35;7.55;;;12.50;99.90;;;;;;5096331;28;20234;-64
2022/04/15 08:06:44;;;;;;;7.65;6.85;;;12.50;99.90;;;;;;5096568;28;20681;-64
2022/04/15 08:09:11;;;;;;;7.93;7.13;;;12.50;99.90;;;;;;5096239;28;20227;-64
2022/04/15 08:11:38;;;;;;;9.80;8.23;;;12.50;99.90;;;;;;5096286;28;20237;-65
2022/04/15 08:14:05;;;;;;;9.23;8.32;;;12.50;99.90;;;;;;5096081;28;20234;-64
2022/04/15 08:16:33;;;;;;;8.52;7.63;;;12.50;99.90;;;;;;5096403;28;20533;-64
2022/04/15 08:19:00;;;;;;;7.78;7.07;;;12.50;99.90;;;;;;5095887;28;20226;-64
2022/04/15 08:21:27;;;;;;;15.25;9.70;;;12.50;99.90;;;;;;5096362;28;20227;-64
2022/04/15 08:23:53;;;;;;;9.55;7.50;;;12.50;99.90;;;;;;5096302;28;20250;-64
2022/04/15 08:26:20;;;;;;;8.25;7.43;;;12.50;99.90;;;;;;5095651;28;20234;-64
2022/04/15 08:28:47;;;;;;;10.20;8.48;;;12.50;99.90;;;;;;5096331;28;20219;-65
2022/04/15 08:31:14;;;;;;;9.50;7.63;;;12.60;99.90;;;;;;5095532;28;20223;-64
2022/04/15 08:33:42;;;;;;;12.65;10.43;;;12.60;99.90;;;;;;5096126;28;20230;-63
2022/04/15 08:36:09;;;;;;;9.35;8.25;;;12.50;99.90;;;;;;5095824;28;20607;-64
2022/04/15 08:38:36;;;;;;;12.55;11.25;;;12.50;99.90;;;;;;5096057;28;20226;-64
2022/04/15 08:41:04;;;;;;;10.25;9.25;;;12.50;99.90;;;;;;5095396;28;20582;-64
2022/04/15 08:43:31;;;;;;;11.23;8.30;;;12.60;99.90;;;;;;5096178;28;20604;-64
2022/04/15 08:46:03;;;;;;;6.80;6.20;;;12.50;99.90;;;;;;5095777;28;20250;-64
2022/04/15 08:48:30;;;;;;;8.55;7.43;;;12.60;99.90;;;;;;5095586;28;20801;-65
2022/04/15 08:51:00;;;;;;;10.75;8.55;;;12.60;99.90;;;;;;5095912;28;20223;-63
2022/04/15 08:53:29;;;;;;;7.97;7.28;;;12.60;99.90;;;;;;5095209;28;20619;-66
2022/04/15 08:55:57;;;;;;;9.90;8.00;;;12.60;99.90;;;;;;5095628;28;20246;-65
2022/04/15 08:58:27;;;;;;;9.85;8.25;;;12.60;99.90;;;;;;5095230;28;20224;-64
2022/04/15 09:00:53;;;;;;;9.07;7.85;;;12.60;99.90;;;;;;5095399;28;20653;-64
2022/04/15 09:03:20;;;;;;;9.23;8.13;;;12.60;99.90;;;;;;5095032;28;20219;-65
2022/04/15 09:05:51;;;;;;;9.68;8.13;;;12.70;99.90;;;;;;5095574;28;20219;-65
2022/04/15 09:08:19;;;;;;;9.50;7.90;;;12.60;99.90;;;;;;5094951;28;20219;-64
2022/04/15 09:10:56;;;;;;;9.70;7.25;;;12.70;99.90;;;;;;5095348;28;20227;-64
2022/04/15 09:13:24;;;;;;;8.50;6.32;;;12.60;99.90;;;;;;5093887;28;20268;-64
2022/04/15 09:15:51;;;;;;;9.63;7.50;;;12.60;99.90;;;;;;5095362;28;20219;-64
2022/04/15 09:18:29;;;;;;;8.00;7.20;;;12.70;99.90;;;;;;5094760;28;20223;-64
2022/04/15 09:21:16;;;;;;;8.20;6.40;;;12.60;99.90;;;;;;5094975;28;20227;-64
2022/04/15 09:23:47;;;;;;;9.15;7.22;;;12.70;99.90;;;;;;5095529;28;20296;-64
2022/04/15 09:26:14;;;;;;;9.90;8.48;;;12.60;99.90;;;;;;5094802;28;20219;-65
2022/04/15 09:28:41;;;;;;;11.15;7.95;;;12.60;99.90;;;;;;5095081;28;20304;-64
2022/04/15 09:31:13;;;;;;;8.23;7.38;;;12.60;99.90;;;;;;5094409;28;20238;-64
2022/04/15 09:33:50;;;;;;;6.80;6.20;;;12.60;99.90;;;;;;5094931;28;20227;-65
2022/04/15 09:36:23;;;;;;;8.45;7.60;;;12.60;99.90;;;;;;5094874;28;20227;-63
2022/04/15 09:38:56;;;;;;;12.73;11.43;;;12.50;99.90;;;;;;5094678;28;20523;-65
2022/04/15 09:41:25;;;;;;;15.02;13.40;;;12.50;99.90;;;;;;5094599;28;20219;-64
2022/04/15 09:43:53;;;;;;;11.73;10.45;;;12.50;99.90;;;;;;5094792;28;20677;-65
2022/04/15 09:46:20;;;;;;;7.75;6.97;;;12.50;99.90;;;;;;5094002;28;20687;-65
2022/04/15 09:49:02;;;;;;;7.18;6.50;;;12.50;99.90;;;;;;5094718;28;20223;-65
2022/04/15 09:51:31;;;;;;;6.93;6.35;;;12.50;99.90;;;;;;5094296;28;20227;-65
2022/04/15 09:54:01;;;;;;;7.10;6.50;;;12.50;99.90;;;;;;5094377;28;20669;-63
2022/04/15 09:56:32;;;;;;;7.88;7.28;;;12.50;99.90;;;;;;5094152;28;20302;-64
2022/04/15 09:59:05;;;;;;;8.38;6.70;;;12.50;99.90;;;;;;5094469;28;20227;-64
2022/04/15 10:01:34;;;;;;;9.15;8.25;;;12.50;99.90;;;;;;5093891;28;20231;-64
2022/04/15 10:04:01;;;;;;;7.68;6.95;;;12.40;99.90;;;;;;5094491;28;20697;-64
2022/04/15 10:06:29;;;;;;;9.40;8.25;;;12.40;99.90;;;;;;5093687;28;20235;-64
2022/04/15 10:09:02;;;;;;;11.23;7.82;;;12.40;99.90;;;;;;5094326;28;20615;-63
2022/04/15 10:11:35;;;;;;;9.75;7.55;;;12.40;99.90;;;;;;5093868;28;20284;-63
2022/04/15 10:14:02;;;;;;;8.25;7.45;;;12.40;99.90;;;;;;5093931;28;20301;-64
2022/04/15 10:16:33;;;;;;;7.20;6.60;;;12.40;99.90;;;;;;5093644;28;20230;-65
2022/04/15 10:19:01;;;;;;;7.25;6.65;;;12.40;99.90;;;;;;5094205;28;20506;-63
2022/04/15 10:21:29;;;;;;;10.63;7.75;;;12.40;99.90;;;;;;5093450;28;20234;-63
2022/04/15 10:23:56;;;;;;;7.85;7.05;;;12.40;99.90;;;;;;5093484;28;20230;-63
2022/04/15 10:26:25;;;;;;;7.97;6.82;;;12.40;99.90;;;;;;5093593;28;20219;-63
2022/04/15 10:28:54;;;;;;;10.38;9.38;;;12.40;99.90;;;;;;5093837;28;20220;-63
2022/04/15 10:31:24;;;;;;;8.90;8.02;;;12.40;99.90;;;;;;5093335;28;20227;-63
2022/04/15 10:33:51;;;;;;;6.97;6.38;;;12.40;99.90;;;;;;5094134;28;20223;-64
2022/04/15 10:36:21;;;;;;;6.82;6.22;;;12.40;99.90;;;;;;5093322;28;20564;-63
2022/04/15 10:39:14;;;;;;;6.93;6.30;;;12.40;99.90;;;;;;5093695;28;20223;-63
2022/04/15 10:42:01;;;;;;;7.93;7.03;;;12.40;99.90;;;;;;5093350;28;20576;-64
2022/04/15 10:44:30;;;;;;;8.93;8.23;;;12.40;99.90;;;;;;5093343;28;20241;-65
2022/04/15 10:47:13;;;;;;;11.07;8.63;;;12.40;99.90;;;;;;5093415;28;20222;-64
2022/04/15 10:49:41;;;;;;;8.50;7.40;;;12.40;99.90;;;;;;5093122;28;20230;-65
2022/04/15 10:52:21;;;;;;;8.20;7.15;;;12.40;99.90;;;;;;5093641;28;20554;-63
2022/04/15 10:54:52;;;;;;;7.30;6.55;;;12.40;99.90;;;;;;5093099;28;20241;-63
2022/04/15 10:57:21;;;;;;;6.18;5.60;;;12.40;99.90;;;;;;5093447;28;20219;-63
2022/04/15 11:02:43;;;;;;;7.60;6.80;;;12.50;99.90;;;;;;5092872;28;20238;-64
2022/04/15 11:05:13;;;;;;;6.30;5.70;;;12.50;99.90;;;;;;5093121;28;20234;-64
2022/04/15 11:07:50;;;;;;;4.95;4.55;;;12.50;99.90;;;;;;5090406;28;20233;-63
2022/04/15 11:10:44;;;;;;;5.47;4.97;;;12.60;99.90;;;;;;5071045;28;20224;-64
2022/04/15 11:13:32;;;;;;;5.72;5.22;;;12.60;99.90;;;;;;5075704;28;20215;-64
2022/04/15 11:16:00;;;;;;;5.00;4.60;;;12.60;99.90;;;;;;5092915;28;20261;-64
2022/04/15 11:18:46;;;;;;;4.93;4.53;;;12.70;99.90;;;;;;5092413;28;20223;-64
2022/04/15 11:21:16;;;;;;;4.88;4.10;;;12.60;99.90;;;;;;5092288;28;20737;-64
2022/04/15 11:23:45;;;;;;;4.03;3.72;;;12.60;99.90;;;;;;5092808;28;20219;-64
2022/04/15 11:26:13;;;;;;;5.65;3.83;;;12.70;99.90;;;;;;5092644;28;20251;-64
2022/04/15 11:28:43;;;;;;;4.90;4.40;;;12.70;99.90;;;;;;5092905;28;20223;-64
2022/04/15 11:31:20;;;;;;;4.30;3.85;;;12.70;99.90;;;;;;5092465;28;20227;-64
2022/04/15 11:33:47;;;;;;;4.05;3.75;;;12.70;99.90;;;;;;5093075;28;20226;-64
2022/04/15 11:36:13;;;;;;;4.38;3.97;;;12.80;99.90;;;;;;5091698;28;20227;-64
2022/04/15 11:38:41;;;;;;;4.80;4.22;;;12.70;99.90;;;;;;5092713;28;20219;-64
2022/04/15 11:41:09;;;;;;;4.47;3.95;;;12.80;99.90;;;;;;5092291;28;20231;-64
2022/04/15 11:43:36;;;;;;;3.78;3.47;;;12.80;99.90;;;;;;5092724;28;20219;-64
2022/04/15 11:46:08;;;;;;;3.60;3.30;;;12.80;99.90;;;;;;5092712;28;20210;-64
2022/04/15 11:48:35;;;;;;;3.22;2.92;;;12.80;99.90;;;;;;5092412;28;20614;-64
2022/04/15 11:51:03;;;;;;;2.75;2.35;;;12.80;99.90;;;;;;5092420;28;20223;-64
2022/04/15 11:53:30;;;;;;;2.97;2.75;;;12.80;99.90;;;;;;5092360;28;20208;-64
2022/04/15 11:55:59;;;;;;;2.00;1.90;;;12.80;99.90;;;;;;5092778;28;20798;-64
2022/04/15 11:58:34;;;;;;;2.75;2.55;;;12.80;99.90;;;;;;5092218;28;20297;-63
2022/04/15 12:01:02;;;;;;;2.80;2.60;;;12.80;99.90;;;;;;5092560;28;20226;-63
2022/04/15 12:03:30;;;;;;;3.17;2.85;;;12.80;99.90;;;;;;5092270;28;20626;-63
2022/04/15 12:05:58;;;;;;;3.65;3.35;;;12.80;99.90;;;;;;5092429;28;20223;-64
2022/04/15 12:08:26;;;;;;;3.55;3.20;;;12.90;99.90;;;;;;5091965;28;20239;-64
2022/04/15 12:10:54;;;;;;;3.17;2.90;;;12.90;99.90;;;;;;5092538;28;20269;-64
2022/04/15 12:13:21;;;;;;;3.80;3.10;;;12.80;99.90;;;;;;5091960;28;20219;-64
2022/04/15 12:15:48;;;;;;;3.25;3.03;;;12.90;99.90;;;;;;5092305;28;20677;-64
2022/04/15 12:18:15;;;;;;;3.42;3.10;;;12.80;99.90;;;;;;5092029;28;20236;-64
2022/04/15 12:20:44;;;;;;;3.00;2.42;;;12.80;99.90;;;;;;5092313;28;20231;-64
2022/04/15 12:23:13;;;;;;;2.55;2.35;;;12.80;99.90;;;;;;5092342;28;20231;-64
2022/04/15 12:31:24;;;;;;;2.85;2.65;;;12.90;99.90;;;;;;5092293;28;20301;-64
2022/04/15 12:33:51;;;;;;;3.10;2.80;;;12.90;99.90;;;;;;5092582;28;20565;-64
2022/04/15 12:36:19;;;;;;;2.88;2.67;;;12.90;99.90;;;;;;5091875;28;20227;-64
2022/04/15 12:39:00;;;;;;;3.38;3.17;;;12.90;99.90;;;;;;5092366;28;20615;-64
2022/04/15 12:41:38;;;;;;;3.70;2.88;;;12.90;99.90;;;;;;5091927;28;20223;-64
2022/04/15 12:44:16;;;;;;;5.43;2.30;;;12.90;99.90;;;;;;5091565;28;20223;-64
2022/04/15 12:46:44;;;;;;;2.70;2.50;;;12.90;99.90;;;;;;5093528;28;20592;-64
2022/04/15 12:49:28;;;;;;;6.07;5.47;;;12.90;99.90;;;;;;5090742;28;20228;-64
2022/04/15 12:52:08;;;;;;;3.60;3.30;;;12.90;99.90;;;;;;5077812;28;20223;-64
2022/04/15 12:54:35;;;;;;;5.10;2.95;;;12.90;99.90;;;;;;5077974;28;20227;-64
2022/04/15 12:57:01;;;;;;;3.70;3.40;;;12.90;99.90;;;;;;5088060;28;20223;-64
2022/04/15 12:59:36;;;;;;;2.25;2.05;;;12.90;99.90;;;;;;5093766;28;20697;-64